Terminal Aerodrome Forecast
Issued by NWS

Home | Current Version | Previous Version | Text Only | Print | Product List | Glossary On
Versions: 1 2 3 4 5 6 7 8 9 10 11 12 13 14 15 16 17 18 19 20 21 22 23 24 25 26 27 28 29 30 31 32 33 34 35
000
FTUS45 KSLC 281733
TAF36U
TAF
K36U 281733Z 2818/2918 20006KT 5SM -SN SCT008 BKN015
      TEMPO 2818/2821 1SM -SN OVC010
     FM282100 22007KT 2SM -SN BR FEW009 OVC020
     FM290300 VRB04KT P6SM VCSH SCT020 BKN040=

USA.gov is the U.S. government's official web portal to all federal, state and local government web resources and services.